sensor_id;sensor_type;location;lat;lon;timestamp;pressure;altitude;pressure_sealevel;temperature;humidity
19736;BME280;32064;49.310;8.646;2023-05-20T00:02:18;100699.03;;;18.71;51.15
19736;BME280;32064;49.310;8.646;2023-05-20T00:04:44;100701.34;;;18.66;50.37
19736;BME280;32064;49.310;8.646;2023-05-20T00:07:09;100698.81;;;18.64;50.90
19736;BME280;32064;49.310;8.646;2023-05-20T00:09:38;100689.44;;;18.60;50.77
19736;BME280;32064;49.310;8.646;2023-05-20T00:12:04;100694.41;;;18.55;51.84
19736;BME280;32064;49.310;8.646;2023-05-20T00:14:29;100692.69;;;18.54;51.58
19736;BME280;32064;49.310;8.646;2023-05-20T00:16:55;100693.19;;;18.49;52.29
19736;BME280;32064;49.310;8.646;2023-05-20T00:19:20;100692.66;;;18.46;50.77
19736;BME280;32064;49.310;8.646;2023-05-20T00:21:45;100684.94;;;18.43;52.45
19736;BME280;32064;49.310;8.646;2023-05-20T00:24:11;100678.09;;;18.40;50.97
19736;BME280;32064;49.310;8.646;2023-05-20T00:26:36;100672.38;;;18.35;51.38
19736;BME280;32064;49.310;8.646;2023-05-20T00:29:01;100673.84;;;18.29;51.53
19736;BME280;32064;49.310;8.646;2023-05-20T00:31:27;100681.97;;;18.28;52.01
19736;BME280;32064;49.310;8.646;2023-05-20T00:33:52;100687.28;;;18.28;53.27
19736;BME280;32064;49.310;8.646;2023-05-20T00:36:18;100683.78;;;18.27;52.98
19736;BME280;32064;49.310;8.646;2023-05-20T00:38:43;100683.25;;;18.24;52.79
19736;BME280;32064;49.310;8.646;2023-05-20T00:41:08;100673.75;;;18.21;52.10
19736;BME280;32064;49.310;8.646;2023-05-20T00:43:34;100685.53;;;18.18;53.82
19736;BME280;32064;49.310;8.646;2023-05-20T00:46:00;100678.69;;;18.16;53.72
19736;BME280;32064;49.310;8.646;2023-05-20T00:48:30;100673.34;;;18.16;54.28
19736;BME280;32064;49.310;8.646;2023-05-20T00:50:57;100678.81;;;18.14;54.45
19736;BME280;32064;49.310;8.646;2023-05-20T00:53:22;100683.47;;;18.12;53.82
19736;BME280;32064;49.310;8.646;2023-05-20T00:55:48;100668.63;;;18.10;53.76
19736;BME280;32064;49.310;8.646;2023-05-20T00:58:13;100667.78;;;18.09;52.99
19736;BME280;32064;49.310;8.646;2023-05-20T01:00:39;100667.78;;;18.09;53.84
19736;BME280;32064;49.310;8.646;2023-05-20T01:03:05;100672.44;;;18.07;53.79
19736;BME280;32064;49.310;8.646;2023-05-20T01:05:30;100662.78;;;18.06;54.36
19736;BME280;32064;49.310;8.646;2023-05-20T01:07:56;100667.22;;;18.06;53.91
19736;BME280;32064;49.310;8.646;2023-05-20T01:10:24;100668.09;;;18.06;54.78
19736;BME280;32064;49.310;8.646;2023-05-20T01:12:56;100656.75;;;18.04;54.18
19736;BME280;32064;49.310;8.646;2023-05-20T01:15:24;100661.25;;;18.04;55.34
19736;BME280;32064;49.310;8.646;2023-05-20T01:17:54;100656.34;;;17.99;55.26
19736;BME280;32064;49.310;8.646;2023-05-20T01:20:23;100656.34;;;17.99;55.02
19736;BME280;32064;49.310;8.646;2023-05-20T01:22:53;100652.84;;;17.99;55.59
19736;BME280;32064;49.310;8.646;2023-05-20T01:25:19;100658.03;;;18.00;55.40
19736;BME280;32064;49.310;8.646;2023-05-20T01:27:44;100659.72;;;18.01;54.80
19736;BME280;32064;49.310;8.646;2023-05-20T01:30:11;100651.25;;;18.06;55.37
19736;BME280;32064;49.310;8.646;2023-05-20T01:32:42;100652.94;;;18.07;56.22
19736;BME280;32064;49.310;8.646;2023-05-20T01:35:08;100653.47;;;18.10;56.16
19736;BME280;32064;49.310;8.646;2023-05-20T01:37:37;100662.16;;;18.12;55.52
19736;BME280;32064;49.310;8.646;2023-05-20T01:40:05;100657.81;;;18.11;55.33
19736;BME280;32064;49.310;8.646;2023-05-20T01:42:31;100659.34;;;18.14;56.16
19736;BME280;32064;49.310;8.646;2023-05-20T01:44:58;100666.88;;;18.18;55.68
19736;BME280;32064;49.310;8.646;2023-05-20T01:47:24;100657.91;;;18.20;55.13
19736;BME280;32064;49.310;8.646;2023-05-20T01:49:49;100647.25;;;18.20;56.47
19736;BME280;32064;49.310;8.646;2023-05-20T01:52:19;100652.44;;;18.21;55.69
19736;BME280;32064;49.310;8.646;2023-05-20T01:54:44;100647.09;;;18.21;55.90
19736;BME280;32064;49.310;8.646;2023-05-20T01:57:18;100657.28;;;18.26;55.01
19736;BME280;32064;49.310;8.646;2023-05-20T01:59:44;100651.44;;;18.22;56.50
19736;BME280;32064;49.310;8.646;2023-05-20T02:02:13;100654.63;;;18.26;56.29
19736;BME280;32064;49.310;8.646;2023-05-20T02:04:38;100652.25;;;18.23;54.94
19736;BME280;32064;49.310;8.646;2023-05-20T02:07:04;100640.66;;;18.24;55.57
19736;BME280;32064;49.310;8.646;2023-05-20T02:09:29;100647.94;;;18.22;56.01
19736;BME280;32064;49.310;8.646;2023-05-20T02:11:55;100643.75;;;18.19;55.13
19736;BME280;32064;49.310;8.646;2023-05-20T02:14:20;100649.91;;;18.20;56.48
19736;BME280;32064;49.310;8.646;2023-05-20T02:16:46;100638.59;;;18.17;56.45
19736;BME280;32064;49.310;8.646;2023-05-20T02:19:12;100645.34;;;18.12;56.83
19736;BME280;32064;49.310;8.646;2023-05-20T02:21:41;100640.69;;;18.14;56.84
19736;BME280;32064;49.310;8.646;2023-05-20T02:24:06;100637.91;;;18.15;56.62
19736;BME280;32064;49.310;8.646;2023-05-20T02:26:33;100640.56;;;18.15;55.73
19736;BME280;32064;49.310;8.646;2023-05-20T02:28:58;100637.38;;;18.12;57.61
19736;BME280;32064;49.310;8.646;2023-05-20T02:31:24;100640.56;;;18.15;56.56
19736;BME280;32064;49.310;8.646;2023-05-20T02:33:50;100638.72;;;18.16;57.14
19736;BME280;32064;49.310;8.646;2023-05-20T02:36:15;100638.19;;;18.12;56.25
19736;BME280;32064;49.310;8.646;2023-05-20T02:38:41;100643.13;;;18.07;57.16
19736;BME280;32064;49.310;8.646;2023-05-20T02:41:07;100642.31;;;18.07;58.27
19736;BME280;32064;49.310;8.646;2023-05-20T02:43:33;100634.31;;;18.07;56.59
19736;BME280;32064;49.310;8.646;2023-05-20T02:45:59;100629.81;;;18.07;57.26
19736;BME280;32064;49.310;8.646;2023-05-20T02:48:24;100630.66;;;18.08;57.22
19736;BME280;32064;49.310;8.646;2023-05-20T02:50:49;100620.47;;;18.03;57.17
19736;BME280;32064;49.310;8.646;2023-05-20T02:53:15;100613.44;;;18.02;57.09
19736;BME280;32064;49.310;8.646;2023-05-20T02:55:40;100620.91;;;17.99;57.99
19736;BME280;32064;49.310;8.646;2023-05-20T02:58:06;100613.63;;;18.01;57.54
19736;BME280;32064;49.310;8.646;2023-05-20T03:00:31;100610.41;;;17.97;57.95
19736;BME280;32064;49.310;8.646;2023-05-20T03:02:59;100612.09;;;17.98;57.95
19736;BME280;32064;49.310;8.646;2023-05-20T03:05:25;100621.22;;;17.95;57.95
19736;BME280;32064;49.310;8.646;2023-05-20T03:07:51;100622.03;;;17.96;58.68
19736;BME280;32064;49.310;8.646;2023-05-20T03:10:17;100622.19;;;17.94;58.88
19736;BME280;32064;49.310;8.646;2023-05-20T03:12:42;100625.00;;;17.93;58.35
19736;BME280;32064;49.310;8.646;2023-05-20T03:15:08;100617.84;;;17.93;58.92
19736;BME280;32064;49.310;8.646;2023-05-20T03:17:33;100618.84;;;17.92;58.71
19736;BME280;32064;49.310;8.646;2023-05-20T03:20:00;100629.34;;;17.94;59.26
19736;BME280;32064;49.310;8.646;2023-05-20T03:22:26;100628.94;;;17.89;58.87
19736;BME280;32064;49.310;8.646;2023-05-20T03:24:51;100631.06;;;17.85;59.59
19736;BME280;32064;49.310;8.646;2023-05-20T03:27:17;100640.06;;;17.84;59.48
19736;BME280;32064;49.310;8.646;2023-05-20T03:29:42;100636.25;;;17.87;58.42
19736;BME280;32064;49.310;8.646;2023-05-20T03:32:08;100632.16;;;17.92;58.88
19736;BME280;32064;49.310;8.646;2023-05-20T03:34:33;100637.03;;;17.97;58.01
19736;BME280;32064;49.310;8.646;2023-05-20T03:36:59;100637.03;;;17.97;58.39
19736;BME280;32064;49.310;8.646;2023-05-20T03:39:25;100640.69;;;17.96;58.58
19736;BME280;32064;49.310;8.646;2023-05-20T03:41:50;100644.34;;;17.95;57.94
19736;BME280;32064;49.310;8.646;2023-05-20T03:44:16;100641.50;;;17.97;58.02
19736;BME280;32064;49.310;8.646;2023-05-20T03:46:41;100645.56;;;18.01;58.19
19736;BME280;32064;49.310;8.646;2023-05-20T03:49:07;100641.22;;;18.00;58.41
19736;BME280;32064;49.310;8.646;2023-05-20T03:51:32;100640.06;;;18.02;58.25
19736;BME280;32064;49.310;8.646;2023-05-20T03:53:57;100646.22;;;18.03;58.75
19736;BME280;32064;49.310;8.646;2023-05-20T03:56:23;100650.44;;;18.05;58.59
19736;BME280;32064;49.310;8.646;2023-05-20T03:58:48;100644.44;;;18.03;58.40
19736;BME280;32064;49.310;8.646;2023-05-20T04:01:14;100645.09;;;18.05;58.93
19736;BME280;32064;49.310;8.646;2023-05-20T04:03:40;100639.13;;;18.03;59.02
19736;BME280;32064;49.310;8.646;2023-05-20T04:06:08;100644.56;;;18.02;58.48
19736;BME280;32064;49.310;8.646;2023-05-20T04:08:33;100642.91;;;18.01;58.54
19736;BME280;32064;49.310;8.646;2023-05-20T04:11:01;100640.91;;;18.03;58.69
19736;BME280;32064;49.310;8.646;2023-05-20T04:13:26;100637.41;;;18.02;58.53
19736;BME280;32064;49.310;8.646;2023-05-20T04:15:52;100638.72;;;17.98;59.60
19736;BME280;32064;49.310;8.646;2023-05-20T04:18:18;100641.97;;;17.92;58.53
19736;BME280;32064;49.310;8.646;2023-05-20T04:20:44;100642.22;;;17.99;58.58
19736;BME280;32064;49.310;8.646;2023-05-20T04:23:10;100645.19;;;17.95;58.12
19736;BME280;32064;49.310;8.646;2023-05-20T04:25:35;100643.25;;;17.88;59.85
19736;BME280;32064;49.310;8.646;2023-05-20T04:28:01;100652.22;;;17.87;59.54
19736;BME280;32064;49.310;8.646;2023-05-20T04:30:26;100644.78;;;17.90;60.21
19736;BME280;32064;49.310;8.646;2023-05-20T04:32:52;100643.66;;;17.93;60.08
19736;BME280;32064;49.310;8.646;2023-05-20T04:35:18;100640.38;;;17.99;58.41
19736;BME280;32064;49.310;8.646;2023-05-20T04:37:43;100649.91;;;18.02;59.52
19736;BME280;32064;49.310;8.646;2023-05-20T04:40:13;100649.19;;;18.00;59.88
19736;BME280;32064;49.310;8.646;2023-05-20T04:42:38;100650.03;;;18.00;58.42
19736;BME280;32064;49.310;8.646;2023-05-20T04:45:05;100644.97;;;18.07;59.57
19736;BME280;32064;49.310;8.646;2023-05-20T04:47:33;100644.66;;;18.10;58.48
19736;BME280;32064;49.310;8.646;2023-05-20T04:50:11;100639.13;;;18.03;58.61
19736;BME280;32064;49.310;8.646;2023-05-20T04:52:37;100642.34;;;17.97;60.27
19736;BME280;32064;49.310;8.646;2023-05-20T04:55:07;100644.66;;;17.92;58.76
19736;BME280;32064;49.310;8.646;2023-05-20T04:57:36;100633.13;;;17.91;59.44
19736;BME280;32064;49.310;8.646;2023-05-20T05:00:04;100638.63;;;17.90;60.22
19736;BME280;32064;49.310;8.646;2023-05-20T05:02:32;100639.16;;;17.93;59.80
19736;BME280;32064;49.310;8.646;2023-05-20T05:04:58;100632.56;;;17.98;58.68
19736;BME280;32064;49.310;8.646;2023-05-20T05:07:23;100638.94;;;18.05;58.90
19736;BME280;32064;49.310;8.646;2023-05-20T05:09:48;100633.63;;;18.05;59.73
19736;BME280;32064;49.310;8.646;2023-05-20T05:12:14;100627.03;;;18.09;59.47
19736;BME280;32064;49.310;8.646;2023-05-20T05:14:39;100629.44;;;18.02;59.73
19736;BME280;32064;49.310;8.646;2023-05-20T05:17:05;100624.63;;;18.06;58.94
19736;BME280;32064;49.310;8.646;2023-05-20T05:19:30;100628.16;;;18.06;59.23
19736;BME280;32064;49.310;8.646;2023-05-20T05:21:55;100615.59;;;18.16;60.02
19736;BME280;32064;49.310;8.646;2023-05-20T05:24:21;100616.28;;;18.18;59.32
19736;BME280;32064;49.310;8.646;2023-05-20T05:26:46;100614.44;;;18.19;58.48
19736;BME280;32064;49.310;8.646;2023-05-20T05:29:11;100614.84;;;18.24;58.38
19736;BME280;32064;49.310;8.646;2023-05-20T05:31:37;100610.78;;;18.20;58.93
19736;BME280;32064;49.310;8.646;2023-05-20T05:34:03;100607.38;;;18.28;58.88
19736;BME280;32064;49.310;8.646;2023-05-20T05:36:32;100612.16;;;18.42;59.62
19736;BME280;32064;49.310;8.646;2023-05-20T05:38:58;100611.94;;;18.53;59.00
19736;BME280;32064;49.310;8.646;2023-05-20T05:41:23;100598.59;;;18.53;59.05
19736;BME280;32064;49.310;8.646;2023-05-20T05:43:48;100600.22;;;18.46;58.68
19736;BME280;32064;49.310;8.646;2023-05-20T05:46:14;100597.88;;;18.43;58.53
19736;BME280;32064;49.310;8.646;2023-05-20T05:48:39;100602.06;;;18.46;59.58
19736;BME280;32064;49.310;8.646;2023-05-20T05:51:06;100602.09;;;18.54;58.90
19736;BME280;32064;49.310;8.646;2023-05-20T05:53:31;100593.84;;;18.65;58.48
19736;BME280;32064;49.310;8.646;2023-05-20T05:55:57;100592.72;;;18.86;59.05
19736;BME280;32064;49.310;8.646;2023-05-20T05:58:22;100596.63;;;18.99;59.34
19736;BME280;32064;49.310;8.646;2023-05-20T06:00:50;100598.69;;;19.05;58.50
19736;BME280;32064;49.310;8.646;2023-05-20T06:03:17;100596.25;;;19.20;58.17
19736;BME280;32064;49.310;8.646;2023-05-20T06:05:45;100595.78;;;19.25;57.40
19736;BME280;32064;49.310;8.646;2023-05-20T06:08:14;100596.81;;;19.32;57.91
19736;BME280;32064;49.310;8.646;2023-05-20T06:10:39;100593.03;;;19.43;58.26
19736;BME280;32064;49.310;8.646;2023-05-20T06:13:05;100599.75;;;19.55;58.21
19736;BME280;32064;49.310;8.646;2023-05-20T06:15:30;100602.09;;;19.58;57.83
19736;BME280;32064;49.310;8.646;2023-05-20T06:17:56;100604.00;;;19.66;58.40
19736;BME280;32064;49.310;8.646;2023-05-20T06:20:21;100599.19;;;19.78;58.11
19736;BME280;32064;49.310;8.646;2023-05-20T06:22:46;100595.38;;;19.88;58.15
19736;BME280;32064;49.310;8.646;2023-05-20T06:25:12;100595.25;;;20.06;57.98
19736;BME280;32064;49.310;8.646;2023-05-20T06:27:38;100591.75;;;20.14;57.56
19736;BME280;32064;49.310;8.646;2023-05-20T06:30:04;100595.94;;;20.33;57.53
19736;BME280;32064;49.310;8.646;2023-05-20T06:32:29;100595.94;;;20.33;57.19
19736;BME280;32064;49.310;8.646;2023-05-20T06:34:55;100597.75;;;20.32;57.07
19736;BME280;32064;49.310;8.646;2023-05-20T06:37:20;100601.63;;;20.30;57.22
19736;BME280;32064;49.310;8.646;2023-05-20T06:39:49;100594.25;;;20.32;58.23
19736;BME280;32064;49.310;8.646;2023-05-20T06:42:18;100596.09;;;20.31;57.06
19736;BME280;32064;49.310;8.646;2023-05-20T06:44:44;100593.09;;;20.42;57.52
19736;BME280;32064;49.310;8.646;2023-05-20T06:47:10;100590.59;;;20.49;56.79
19736;BME280;32064;49.310;8.646;2023-05-20T06:49:35;100591.78;;;20.63;56.83
19736;BME280;32064;49.310;8.646;2023-05-20T06:52:01;100590.59;;;20.82;56.78
19736;BME280;32064;49.310;8.646;2023-05-20T06:54:26;100591.91;;;20.94;57.07
19736;BME280;32064;49.310;8.646;2023-05-20T06:56:52;100583.34;;;21.15;56.16
19736;BME280;32064;49.310;8.646;2023-05-20T06:59:17;100581.94;;;21.36;55.69
19736;BME280;32064;49.310;8.646;2023-05-20T07:01:43;100579.19;;;21.60;55.01
19736;BME280;32064;49.310;8.646;2023-05-20T07:04:08;100582.88;;;21.82;54.67
19736;BME280;32064;49.310;8.646;2023-05-20T07:06:34;100575.38;;;22.09;54.44
19736;BME280;32064;49.310;8.646;2023-05-20T07:08:59;100572.50;;;22.56;53.83
19736;BME280;32064;49.310;8.646;2023-05-20T07:11:25;100564.63;;;23.07;53.26
19736;BME280;32064;49.310;8.646;2023-05-20T07:13:50;100560.78;;;23.46;52.34
19736;BME280;32064;49.310;8.646;2023-05-20T07:16:16;100559.38;;;24.02;51.10
19736;BME280;32064;49.310;8.646;2023-05-20T07:18:41;100567.91;;;25.52;47.75
19736;BME280;32064;49.310;8.646;2023-05-20T07:21:07;100566.00;;;25.40;47.38
19736;BME280;32064;49.310;8.646;2023-05-20T07:23:32;100560.41;;;25.00;48.01
19736;BME280;32064;49.310;8.646;2023-05-20T07:25:57;100559.13;;;24.96;48.00
19736;BME280;32064;49.310;8.646;2023-05-20T07:28:23;100556.09;;;25.12;47.95
19736;BME280;32064;49.310;8.646;2023-05-20T07:30:48;100561.25;;;25.07;47.58
19736;BME280;32064;49.310;8.646;2023-05-20T07:33:16;100561.13;;;25.15;47.89
19736;BME280;32064;49.310;8.646;2023-05-20T07:35:42;100551.00;;;25.17;47.80
19736;BME280;32064;49.310;8.646;2023-05-20T07:38:10;100540.50;;;25.36;48.02
19736;BME280;32064;49.310;8.646;2023-05-20T07:40:36;100550.00;;;26.99;45.17
19736;BME280;32064;49.310;8.646;2023-05-20T07:43:03;100541.44;;;29.85;39.41
19736;BME280;32064;49.310;8.646;2023-05-20T07:45:28;100548.72;;;31.32;37.63
19736;BME280;32064;49.310;8.646;2023-05-20T07:47:53;100544.94;;;32.53;35.77
19736;BME280;32064;49.310;8.646;2023-05-20T07:50:19;100546.31;;;33.55;34.31
19736;BME280;32064;49.310;8.646;2023-05-20T07:52:45;100542.56;;;34.20;33.54
19736;BME280;32064;49.310;8.646;2023-05-20T07:55:10;100539.72;;;34.42;32.34
19736;BME280;32064;49.310;8.646;2023-05-20T07:57:35;100533.88;;;34.66;32.47
19736;BME280;32064;49.310;8.646;2023-05-20T08:00:01;100535.50;;;35.09;31.23
19736;BME280;32064;49.310;8.646;2023-05-20T08:02:27;100537.50;;;34.77;31.88
19736;BME280;32064;49.310;8.646;2023-05-20T08:04:52;100538.41;;;34.13;32.98
19736;BME280;32064;49.310;8.646;2023-05-20T08:07:17;100535.47;;;32.43;34.68
19736;BME280;32064;49.310;8.646;2023-05-20T08:09:43;100535.78;;;31.51;35.54
19736;BME280;32064;49.310;8.646;2023-05-20T08:12:08;100546.75;;;32.47;34.72
19736;BME280;32064;49.310;8.646;2023-05-20T08:14:33;100533.22;;;34.11;32.48
19736;BME280;32064;49.310;8.646;2023-05-20T08:16:59;100529.94;;;34.94;32.17
19736;BME280;32064;49.310;8.646;2023-05-20T08:19:24;100533.97;;;35.54;30.90
19736;BME280;32064;49.310;8.646;2023-05-20T08:21:50;100540.63;;;35.74;30.14
19736;BME280;32064;49.310;8.646;2023-05-20T08:24:15;100529.25;;;34.29;32.13
19736;BME280;32064;49.310;8.646;2023-05-20T08:26:41;100538.34;;;35.45;30.83
19736;BME280;32064;49.310;8.646;2023-05-20T08:29:06;100536.03;;;36.15;30.06
19736;BME280;32064;49.310;8.646;2023-05-20T08:31:32;100529.41;;;36.52;29.01
19736;BME280;32064;49.310;8.646;2023-05-20T08:33:57;100541.16;;;36.63;28.85
19736;BME280;32064;49.310;8.646;2023-05-20T08:36:23;100529.63;;;36.71;28.58
19736;BME280;32064;49.310;8.646;2023-05-20T08:38:49;100535.06;;;36.92;28.31
19736;BME280;32064;49.310;8.646;2023-05-20T08:41:15;100524.06;;;36.97;28.16
19736;BME280;32064;49.310;8.646;2023-05-20T08:43:41;100515.63;;;36.78;28.40
19736;BME280;32064;49.310;8.646;2023-05-20T08:46:07;100512.00;;;37.47;27.56
19736;BME280;32064;49.310;8.646;2023-05-20T08:48:34;100507.69;;;37.81;27.97
19736;BME280;32064;49.310;8.646;2023-05-20T08:51:01;100509.53;;;37.01;28.92
19736;BME280;32064;49.310;8.646;2023-05-20T08:53:27;100496.25;;;35.92;30.13
19736;BME280;32064;49.310;8.646;2023-05-20T08:55:54;100505.84;;;35.95;29.17
19736;BME280;32064;49.310;8.646;2023-05-20T08:58:22;100503.38;;;35.88;29.20
19736;BME280;32064;49.310;8.646;2023-05-20T09:00:48;100496.50;;;36.52;28.20
19736;BME280;32064;49.310;8.646;2023-05-20T09:03:13;100494.13;;;37.05;28.04
19736;BME280;32064;49.310;8.646;2023-05-20T09:05:39;100497.22;;;37.48;26.68
19736;BME280;32064;49.310;8.646;2023-05-20T09:08:10;100500.03;;;37.28;27.51
19736;BME280;32064;49.310;8.646;2023-05-20T09:10:37;100495.25;;;35.10;29.54
19736;BME280;32064;49.310;8.646;2023-05-20T09:13:04;100502.00;;;36.32;28.36
19736;BME280;32064;49.310;8.646;2023-05-20T09:15:30;100496.34;;;36.98;27.07
19736;BME280;32064;49.310;8.646;2023-05-20T09:17:59;100495.34;;;37.34;27.29
19736;BME280;32064;49.310;8.646;2023-05-20T09:20:26;100493.34;;;37.55;26.95
19736;BME280;32064;49.310;8.646;2023-05-20T09:22:53;100477.91;;;37.59;26.56
19736;BME280;32064;49.310;8.646;2023-05-20T09:25:22;100476.53;;;37.90;26.25
19736;BME280;32064;49.310;8.646;2023-05-20T09:27:49;100484.75;;;37.17;27.32
19736;BME280;32064;49.310;8.646;2023-05-20T09:30:17;100489.97;;;37.18;26.98
19736;BME280;32064;49.310;8.646;2023-05-20T09:32:43;100478.56;;;36.85;27.25
19736;BME280;32064;49.310;8.646;2023-05-20T09:35:12;100487.63;;;37.41;26.40
19736;BME280;32064;49.310;8.646;2023-05-20T09:37:41;100481.72;;;37.18;26.41
19736;BME280;32064;49.310;8.646;2023-05-20T09:40:07;100476.50;;;37.66;26.17
19736;BME280;32064;49.310;8.646;2023-05-20T09:42:41;100486.16;;;37.93;25.32
19736;BME280;32064;49.310;8.646;2023-05-20T09:45:08;100487.19;;;36.58;27.04
19736;BME280;32064;49.310;8.646;2023-05-20T09:47:38;100486.09;;;36.03;27.90
19736;BME280;32064;49.310;8.646;2023-05-20T09:50:06;100483.56;;;35.30;28.16
19736;BME280;32064;49.310;8.646;2023-05-20T09:52:36;100489.22;;;33.81;29.94
19736;BME280;32064;49.310;8.646;2023-05-20T09:55:03;100479.53;;;32.75;30.90
19736;BME280;32064;49.310;8.646;2023-05-20T09:57:36;100474.75;;;32.82;31.45
19736;BME280;32064;49.310;8.646;2023-05-20T10:00:03;100475.81;;;32.59;30.72
19736;BME280;32064;49.310;8.646;2023-05-20T10:02:30;100477.38;;;31.87;31.92
19736;BME280;32064;49.310;8.646;2023-05-20T10:04:56;100461.03;;;31.87;32.25
19736;BME280;32064;49.310;8.646;2023-05-20T10:07:40;100471.75;;;33.27;30.66
19736;BME280;32064;49.310;8.646;2023-05-20T10:10:23;100465.81;;;33.90;30.08
19736;BME280;32064;49.310;8.646;2023-05-20T10:13:13;100457.91;;;34.31;29.60
19736;BME280;32064;49.310;8.646;2023-05-20T10:18:55;100453.75;;;35.34;30.01
19736;BME280;32064;49.310;8.646;2023-05-20T10:21:23;100449.09;;;35.49;29.02
19736;BME280;32064;49.310;8.646;2023-05-20T10:23:49;100449.69;;;36.13;27.96
19736;BME280;32064;49.310;8.646;2023-05-20T10:26:16;100445.31;;;35.71;28.14
19736;BME280;32064;49.310;8.646;2023-05-20T10:28:42;100450.75;;;36.27;27.91
19736;BME280;32064;49.310;8.646;2023-05-20T10:31:21;100453.50;;;35.91;28.23
19736;BME280;32064;49.310;8.646;2023-05-20T10:33:47;100442.53;;;35.45;28.52
19736;BME280;32064;49.310;8.646;2023-05-20T10:36:26;100443.03;;;35.12;27.55
19736;BME280;32064;49.310;8.646;2023-05-20T10:38:57;100431.47;;;34.99;27.42
19736;BME280;32064;49.310;8.646;2023-05-20T10:41:24;100434.03;;;35.31;27.56
19736;BME280;32064;49.310;8.646;2023-05-20T10:44:01;100433.78;;;36.20;28.09
19736;BME280;32064;49.310;8.646;2023-05-20T10:46:28;100433.69;;;36.56;27.62
19736;BME280;32064;49.310;8.646;2023-05-20T10:48:54;100428.19;;;36.61;27.59
19736;BME280;32064;49.310;8.646;2023-05-20T10:51:20;100429.47;;;36.84;26.78
19736;BME280;32064;49.310;8.646;2023-05-20T10:53:47;100428.47;;;37.14;26.55
19736;BME280;32064;49.310;8.646;2023-05-20T10:56:20;100424.91;;;36.49;26.42
19736;BME280;32064;49.310;8.646;2023-05-20T10:58:46;100418.94;;;36.36;27.34
19736;BME280;32064;49.310;8.646;2023-05-20T11:01:12;100422.75;;;35.07;27.88
19736;BME280;32064;49.310;8.646;2023-05-20T11:03:39;100429.72;;;34.20;28.84
19736;BME280;32064;49.310;8.646;2023-05-20T11:06:26;100424.47;;;34.13;28.74
19736;BME280;32064;49.310;8.646;2023-05-20T11:09:02;100417.41;;;34.70;28.53
19736;BME280;32064;49.310;8.646;2023-05-20T11:11:29;100411.81;;;35.13;28.19
19736;BME280;32064;49.310;8.646;2023-05-20T11:13:55;100410.59;;;34.20;29.92
19736;BME280;32064;49.310;8.646;2023-05-20T11:16:21;100414.88;;;34.06;28.37
19736;BME280;32064;49.310;8.646;2023-05-20T11:18:49;100423.16;;;33.84;30.01
19736;BME280;32064;49.310;8.646;2023-05-20T11:21:15;100417.75;;;33.29;29.36
19736;BME280;32064;49.310;8.646;2023-05-20T11:23:41;100414.88;;;32.48;30.84
19736;BME280;32064;49.310;8.646;2023-05-20T11:26:06;100409.00;;;32.01;31.20
19736;BME280;32064;49.310;8.646;2023-05-20T11:28:34;100416.25;;;31.61;32.10
19736;BME280;32064;49.310;8.646;2023-05-20T11:31:00;100410.19;;;31.14;32.61
19736;BME280;32064;49.310;8.646;2023-05-20T11:33:26;100403.75;;;31.31;32.86
19736;BME280;32064;49.310;8.646;2023-05-20T11:35:52;100404.66;;;32.00;31.87
19736;BME280;32064;49.310;8.646;2023-05-20T11:38:19;100401.53;;;31.91;32.20
19736;BME280;32064;49.310;8.646;2023-05-20T11:40:46;100385.38;;;31.39;32.15
19736;BME280;32064;49.310;8.646;2023-05-20T11:43:13;100385.72;;;31.59;32.35
19736;BME280;32064;49.310;8.646;2023-05-20T11:45:43;100384.41;;;31.16;33.04
19736;BME280;32064;49.310;8.646;2023-05-20T11:48:10;100385.28;;;31.05;32.73
19736;BME280;32064;49.310;8.646;2023-05-20T11:50:44;100373.53;;;31.16;33.65
19736;BME280;32064;49.310;8.646;2023-05-20T11:53:15;100380.13;;;31.03;33.26
19736;BME280;32064;49.310;8.646;2023-05-20T11:55:53;100374.53;;;31.56;32.40
19736;BME280;32064;49.310;8.646;2023-05-20T11:58:26;100365.38;;;31.62;33.07
19736;BME280;32064;49.310;8.646;2023-05-20T12:00:53;100365.97;;;31.18;33.09
19736;BME280;32064;49.310;8.646;2023-05-20T12:03:18;100374.03;;;30.84;33.52
19736;BME280;32064;49.310;8.646;2023-05-20T12:05:44;100364.44;;;30.53;33.60
19736;BME280;32064;49.310;8.646;2023-05-20T12:08:11;100368.34;;;30.46;34.08
19736;BME280;32064;49.310;8.646;2023-05-20T12:10:37;100363.31;;;30.26;34.48
19736;BME280;32064;49.310;8.646;2023-05-20T12:13:03;100373.91;;;29.92;34.77
19736;BME280;32064;49.310;8.646;2023-05-20T12:15:36;100364.19;;;29.61;34.99
19736;BME280;32064;49.310;8.646;2023-05-20T12:18:02;100374.06;;;29.43;35.12
19736;BME280;32064;49.310;8.646;2023-05-20T12:20:28;100368.19;;;29.58;35.55
19736;BME280;32064;49.310;8.646;2023-05-20T12:22:55;100352.97;;;29.34;35.81
19736;BME280;32064;49.310;8.646;2023-05-20T12:25:20;100356.63;;;29.39;36.03
19736;BME280;32064;49.310;8.646;2023-05-20T12:27:47;100348.84;;;29.31;35.92
19736;BME280;32064;49.310;8.646;2023-05-20T12:30:18;100349.28;;;29.16;36.52
19736;BME280;32064;49.310;8.646;2023-05-20T12:32:45;100354.09;;;29.14;36.15
19736;BME280;32064;49.310;8.646;2023-05-20T12:35:11;100339.59;;;29.08;36.79
19736;BME280;32064;49.310;8.646;2023-05-20T12:37:38;100338.44;;;28.98;36.99
19736;BME280;32064;49.310;8.646;2023-05-20T12:40:04;100329.34;;;29.11;36.53
19736;BME280;32064;49.310;8.646;2023-05-20T12:42:40;100337.28;;;28.94;37.84
19736;BME280;32064;49.310;8.646;2023-05-20T12:45:06;100353.38;;;28.88;36.68
19736;BME280;32064;49.310;8.646;2023-05-20T12:47:32;100350.66;;;28.88;37.06
19736;BME280;32064;49.310;8.646;2023-05-20T12:49:58;100338.78;;;29.20;37.19
19736;BME280;32064;49.310;8.646;2023-05-20T12:52:24;100324.88;;;29.16;36.08